NDF38 LRSB-LROP
Flight info
| Callsign | NDF38 |
|---|---|
| Flight time | 0h 43m |
| Altitude | 23000 |
| Route | IRLOX1Q IRLOX DCT TOSVI TOSVI1R |
| Aircraft | A320/M-SDE3FGHIRWY/LB1 |
Departure
| Time | 2026-05-04 15:18 |
|---|---|
| Airport | Sibiu International Airport (LRSB) |
Arrival
| Time | 2026-05-04 16:01 |
|---|---|
| Airport | Bucharest Henri Coandă International Airport (LROP) |
| Time | Latitude | Longitude | Altitude | Speed | Heading |
|---|---|---|---|---|---|
| 2026-05-04 14:55 | 45.78846 | 24.09658 | 1460 ft | 0 kts | 353° |
| 2026-05-04 15:11 | 45.78838 | 24.09660 | 1460 ft | 4 kts | 357° |
| 2026-05-04 15:11 | 45.78813 | 24.09654 | 1449 ft | 4 kts | 35° |
| 2026-05-04 15:11 | 45.78800 | 24.09628 | 1458 ft | 3 kts | 89° |
| 2026-05-04 15:11 | 45.78800 | 24.09623 | 1457 ft | 0 kts | 92° |
| 2026-05-04 15:15 | 45.78800 | 24.09625 | 1457 ft | 1 kts | 92° |
| 2026-05-04 15:15 | 45.78799 | 24.09643 | 1460 ft | 3 kts | 92° |
| 2026-05-04 15:16 | 45.78796 | 24.09740 | 1460 ft | 7 kts | 92° |
| 2026-05-04 15:16 | 45.78768 | 24.09794 | 1460 ft | 8 kts | 159° |
| 2026-05-04 15:16 | 45.78635 | 24.09799 | 1459 ft | 12 kts | 184° |
| 2026-05-04 15:17 | 45.78572 | 24.09742 | 1459 ft | 11 kts | 255° |
| 2026-05-04 15:17 | 45.78576 | 24.09190 | 1474 ft | 80 kts | 271° |
| 2026-05-04 15:17 | 45.78595 | 24.08116 | 1501 ft | 132 kts | 272° |
| 2026-05-04 15:18 | 45.78637 | 24.06667 | 1680 ft | 157 kts | 269° |
| 2026-05-04 15:18 | 45.78602 | 24.05072 | 2136 ft | 160 kts | 275° |
| 2026-05-04 15:18 | 45.78655 | 24.03482 | 2820 ft | 159 kts | 277° |
| 2026-05-04 15:19 | 45.78807 | 24.00174 | 3522 ft | 184 kts | 282° |
| 2026-05-04 15:19 | 45.78895 | 23.98233 | 3667 ft | 206 kts | 275° |
| 2026-05-04 15:19 | 45.79076 | 23.93617 | 4280 ft | 257 kts | 275° |
| 2026-05-04 15:20 | 45.79163 | 23.90983 | 4970 ft | 270 kts | 276° |
| 2026-05-04 15:20 | 45.79243 | 23.88314 | 5872 ft | 274 kts | 276° |
| 2026-05-04 15:20 | 45.79334 | 23.85572 | 6794 ft | 277 kts | 278° |
| 2026-05-04 15:20 | 45.79805 | 23.82895 | 7614 ft | 279 kts | 296° |
| 2026-05-04 15:21 | 45.80818 | 23.80539 | 8455 ft | 279 kts | 314° |
| 2026-05-04 15:21 | 45.82285 | 23.78728 | 9253 ft | 280 kts | 332° |
| 2026-05-04 15:21 | 45.86010 | 23.77355 | 10795 ft | 281 kts | 6° |
| 2026-05-04 15:22 | 45.87920 | 23.77932 | 11537 ft | 281 kts | 23° |
| 2026-05-04 15:22 | 45.89598 | 23.79284 | 12275 ft | 282 kts | 40° |
| 2026-05-04 15:22 | 45.91792 | 23.83857 | 13824 ft | 284 kts | 73° |
| 2026-05-04 15:23 | 45.92062 | 23.86626 | 14691 ft | 281 kts | 89° |
| 2026-05-04 15:23 | 45.91767 | 23.89406 | 15121 ft | 286 kts | 105° |
| 2026-05-04 15:23 | 45.90855 | 23.91974 | 15404 ft | 294 kts | 122° |
| 2026-05-04 15:23 | 45.89603 | 23.94329 | 15846 ft | 299 kts | 123° |
| 2026-05-04 15:24 | 45.86923 | 23.99375 | 16225 ft | 338 kts | 123° |
| 2026-05-04 15:24 | 45.83951 | 24.04999 | 16492 ft | 373 kts | 123° |
| 2026-05-04 15:25 | 45.82348 | 24.08028 | 16706 ft | 387 kts | 124° |
| 2026-05-04 15:25 | 45.80620 | 24.11026 | 17148 ft | 396 kts | 131° |
| 2026-05-04 15:25 | 45.78463 | 24.13543 | 17654 ft | 405 kts | 144° |
| 2026-05-04 15:26 | 45.73101 | 24.16403 | 18656 ft | 422 kts | 169° |
| 2026-05-04 15:26 | 45.70180 | 24.16994 | 19164 ft | 425 kts | 169° |
| 2026-05-04 15:26 | 45.64446 | 24.18823 | 20194 ft | 426 kts | 155° |
| 2026-05-04 15:27 | 45.61785 | 24.20670 | 20687 ft | 425 kts | 146° |
| 2026-05-04 15:27 | 45.57056 | 24.25745 | 21607 ft | 428 kts | 139° |
| 2026-05-04 15:28 | 45.52340 | 24.31059 | 22477 ft | 436 kts | 139° |
| 2026-05-04 15:28 | 45.49953 | 24.33734 | 22887 ft | 439 kts | 139° |
| 2026-05-04 15:28 | 45.45129 | 24.39148 | 23065 ft | 454 kts | 139° |
| 2026-05-04 15:29 | 45.42613 | 24.41970 | 23058 ft | 466 kts | 140° |
| 2026-05-04 15:30 | 45.32283 | 24.53516 | 23057 ft | 474 kts | 140° |
| 2026-05-04 15:30 | 45.24500 | 24.62180 | 23048 ft | 476 kts | 142° |
| 2026-05-04 15:31 | 45.19287 | 24.67955 | 23047 ft | 474 kts | 142° |
| 2026-05-04 15:31 | 45.16688 | 24.70826 | 23045 ft | 474 kts | 142° |
| 2026-05-04 15:32 | 45.08892 | 24.79443 | 22583 ft | 475 kts | 141° |
| 2026-05-04 15:32 | 45.03560 | 24.85327 | 20478 ft | 468 kts | 140° |
| 2026-05-04 15:33 | 44.98663 | 24.90699 | 19075 ft | 453 kts | 139° |
| 2026-05-04 15:34 | 44.91359 | 24.98684 | 17132 ft | 427 kts | 138° |
| 2026-05-04 15:34 | 44.89016 | 25.01244 | 17005 ft | 425 kts | 138° |
| 2026-05-04 15:34 | 44.84353 | 25.06358 | 17040 ft | 425 kts | 138° |
| 2026-05-04 15:35 | 44.79679 | 25.11468 | 17036 ft | 423 kts | 138° |
| 2026-05-04 15:35 | 44.77409 | 25.13930 | 17039 ft | 401 kts | 138° |
| 2026-05-04 15:35 | 44.75243 | 25.16253 | 17047 ft | 382 kts | 140° |
| 2026-05-04 15:36 | 44.70646 | 25.19220 | 17038 ft | 358 kts | 166° |
| 2026-05-04 15:36 | 44.68199 | 25.19359 | 17047 ft | 348 kts | 184° |
| 2026-05-04 15:36 | 44.65902 | 25.18471 | 17039 ft | 339 kts | 202° |
| 2026-05-04 15:37 | 44.63938 | 25.16754 | 17036 ft | 328 kts | 220° |
| 2026-05-04 15:37 | 44.62404 | 25.14435 | 17049 ft | 324 kts | 236° |
| 2026-05-04 15:37 | 44.61342 | 25.11676 | 17051 ft | 321 kts | 252° |
| 2026-05-04 15:37 | 44.60821 | 25.08657 | 17035 ft | 317 kts | 268° |
| 2026-05-04 15:38 | 44.60857 | 25.05597 | 17037 ft | 312 kts | 283° |
| 2026-05-04 15:38 | 44.61420 | 25.02692 | 17050 ft | 306 kts | 298° |
| 2026-05-04 15:38 | 44.62445 | 25.00118 | 17049 ft | 300 kts | 312° |
| 2026-05-04 15:38 | 44.63782 | 24.97904 | 17040 ft | 296 kts | 319° |
| 2026-05-04 15:39 | 44.65213 | 24.95888 | 17046 ft | 295 kts | 322° |
| 2026-05-04 15:39 | 44.66711 | 24.93922 | 17023 ft | 295 kts | 323° |
| 2026-05-04 15:39 | 44.69745 | 24.90031 | 17039 ft | 296 kts | 323° |
| 2026-05-04 15:40 | 44.71259 | 24.88066 | 17036 ft | 296 kts | 323° |
| 2026-05-04 15:40 | 44.72890 | 24.86349 | 17040 ft | 290 kts | 335° |
| 2026-05-04 15:40 | 44.74700 | 24.85191 | 17041 ft | 284 kts | 348° |
| 2026-05-04 15:40 | 44.76610 | 24.84649 | 17041 ft | 278 kts | 1° |
| 2026-05-04 15:41 | 44.78521 | 24.84727 | 17040 ft | 273 kts | 13° |
| 2026-05-04 15:41 | 44.80317 | 24.85377 | 17041 ft | 269 kts | 24° |
| 2026-05-04 15:41 | 44.81972 | 24.86554 | 17040 ft | 266 kts | 35° |
| 2026-05-04 15:41 | 44.83374 | 24.88403 | 17044 ft | 290 kts | 57° |
| 2026-05-04 15:42 | 44.84131 | 24.91156 | 17045 ft | 318 kts | 79° |
| 2026-05-04 15:42 | 44.84067 | 24.94397 | 17042 ft | 345 kts | 95° |
| 2026-05-04 15:42 | 44.83661 | 24.97838 | 17042 ft | 366 kts | 96° |
| 2026-05-04 15:42 | 44.83212 | 25.01466 | 17042 ft | 385 kts | 96° |
| 2026-05-04 15:43 | 44.82750 | 25.05265 | 17039 ft | 399 kts | 97° |
| 2026-05-04 15:43 | 44.82280 | 25.09141 | 17050 ft | 403 kts | 96° |
| 2026-05-04 15:43 | 44.81811 | 25.13036 | 17032 ft | 405 kts | 96° |
| 2026-05-04 15:43 | 44.81345 | 25.16897 | 16991 ft | 404 kts | 96° |
| 2026-05-04 15:44 | 44.80879 | 25.20758 | 16304 ft | 398 kts | 96° |
| 2026-05-04 15:44 | 44.80414 | 25.24586 | 15563 ft | 394 kts | 96° |
| 2026-05-04 15:44 | 44.79946 | 25.28365 | 14887 ft | 390 kts | 96° |
| 2026-05-04 15:44 | 44.79477 | 25.32113 | 14242 ft | 386 kts | 96° |
| 2026-05-04 15:45 | 44.79009 | 25.35810 | 13567 ft | 382 kts | 96° |
| 2026-05-04 15:45 | 44.78539 | 25.39477 | 12802 ft | 379 kts | 96° |
| 2026-05-04 15:45 | 44.78068 | 25.43120 | 12035 ft | 377 kts | 96° |
| 2026-05-04 15:45 | 44.77598 | 25.46740 | 11294 ft | 375 kts | 96° |
| 2026-05-04 15:46 | 44.77121 | 25.50349 | 10489 ft | 375 kts | 96° |
| 2026-05-04 15:46 | 44.76645 | 25.53901 | 10195 ft | 361 kts | 96° |
| 2026-05-04 15:46 | 44.76185 | 25.57247 | 10084 ft | 344 kts | 96° |
| 2026-05-04 15:46 | 44.75732 | 25.60474 | 9960 ft | 330 kts | 96° |
| 2026-05-04 15:47 | 44.75289 | 25.63572 | 9829 ft | 317 kts | 96° |
| 2026-05-04 15:47 | 44.74857 | 25.66552 | 9695 ft | 305 kts | 96° |
| 2026-05-04 15:47 | 44.74433 | 25.69430 | 9564 ft | 295 kts | 96° |
| 2026-05-04 15:47 | 44.73895 | 25.72171 | 9401 ft | 292 kts | 111° |
| 2026-05-04 15:48 | 44.72648 | 25.74442 | 9115 ft | 299 kts | 137° |
| 2026-05-04 15:48 | 44.70817 | 25.75863 | 8783 ft | 303 kts | 154° |
| 2026-05-04 15:48 | 44.66883 | 25.77978 | 8134 ft | 301 kts | 156° |
| 2026-05-04 15:49 | 44.64920 | 25.78990 | 7872 ft | 299 kts | 156° |
| 2026-05-04 15:49 | 44.63000 | 25.79956 | 7740 ft | 285 kts | 156° |
| 2026-05-04 15:49 | 44.61149 | 25.80495 | 7609 ft | 271 kts | 181° |
| 2026-05-04 15:49 | 44.59376 | 25.79852 | 7343 ft | 261 kts | 212° |
| 2026-05-04 15:50 | 44.58088 | 25.78164 | 6929 ft | 251 kts | 244° |
| 2026-05-04 15:50 | 44.57514 | 25.75923 | 6468 ft | 242 kts | 263° |
| 2026-05-04 15:50 | 44.57212 | 25.73612 | 6061 ft | 238 kts | 266° |
| 2026-05-04 15:50 | 44.56962 | 25.71332 | 6000 ft | 238 kts | 266° |
| 2026-05-04 15:51 | 44.56725 | 25.69037 | 5820 ft | 237 kts | 266° |
| 2026-05-04 15:51 | 44.56501 | 25.66761 | 5369 ft | 234 kts | 266° |
| 2026-05-04 15:51 | 44.56300 | 25.64520 | 4966 ft | 230 kts | 266° |
| 2026-05-04 15:51 | 44.56117 | 25.62302 | 4557 ft | 227 kts | 266° |
| 2026-05-04 15:52 | 44.55943 | 25.60150 | 4150 ft | 224 kts | 263° |
| 2026-05-04 15:52 | 44.55296 | 25.58186 | 3992 ft | 226 kts | 227° |
| 2026-05-04 15:52 | 44.53952 | 25.57046 | 4002 ft | 232 kts | 194° |
| 2026-05-04 15:52 | 44.52353 | 25.57101 | 3998 ft | 233 kts | 160° |
| 2026-05-04 15:53 | 44.51028 | 25.58347 | 4008 ft | 232 kts | 127° |
| 2026-05-04 15:53 | 44.50366 | 25.60363 | 3999 ft | 228 kts | 101° |
| 2026-05-04 15:53 | 44.50065 | 25.62547 | 4001 ft | 229 kts | 97° |
| 2026-05-04 15:53 | 44.49817 | 25.64734 | 3946 ft | 225 kts | 97° |
| 2026-05-04 15:54 | 44.49585 | 25.66860 | 3791 ft | 218 kts | 96° |
| 2026-05-04 15:54 | 44.49438 | 25.68947 | 3532 ft | 214 kts | 83° |
| 2026-05-04 15:54 | 44.49955 | 25.70822 | 3273 ft | 207 kts | 50° |
| 2026-05-04 15:54 | 44.50844 | 25.72426 | 2933 ft | 210 kts | 51° |
| 2026-05-04 15:55 | 44.51678 | 25.74010 | 2818 ft | 198 kts | 52° |
| 2026-05-04 15:55 | 44.52466 | 25.75510 | 2703 ft | 185 kts | 51° |
| 2026-05-04 15:55 | 44.53206 | 25.76921 | 2583 ft | 174 kts | 51° |
| 2026-05-04 15:55 | 44.53822 | 25.78325 | 2506 ft | 165 kts | 65° |
| 2026-05-04 15:56 | 44.54161 | 25.79830 | 2520 ft | 162 kts | 75° |
| 2026-05-04 15:56 | 44.54367 | 25.81358 | 2525 ft | 155 kts | 79° |
| 2026-05-04 15:56 | 44.54517 | 25.82843 | 2511 ft | 153 kts | 81° |
| 2026-05-04 15:56 | 44.54647 | 25.84316 | 2511 ft | 152 kts | 82° |
| 2026-05-04 15:57 | 44.54768 | 25.85783 | 2509 ft | 151 kts | 82° |
| 2026-05-04 15:57 | 44.54885 | 25.87249 | 2505 ft | 151 kts | 82° |
| 2026-05-04 15:57 | 44.55001 | 25.88715 | 2503 ft | 151 kts | 82° |
| 2026-05-04 15:57 | 44.55114 | 25.90159 | 2474 ft | 151 kts | 82° |
| 2026-05-04 15:58 | 44.55229 | 25.91632 | 2353 ft | 153 kts | 82° |
| 2026-05-04 15:58 | 44.55343 | 25.93102 | 2186 ft | 152 kts | 82° |
| 2026-05-04 15:58 | 44.55454 | 25.94571 | 2016 ft | 151 kts | 84° |
| 2026-05-04 15:58 | 44.55544 | 25.96028 | 1851 ft | 150 kts | 85° |
| 2026-05-04 15:59 | 44.55663 | 25.97474 | 1704 ft | 149 kts | 80° |
| 2026-05-04 15:59 | 44.55836 | 25.98910 | 1509 ft | 149 kts | 83° |
| 2026-05-04 15:59 | 44.55925 | 26.00346 | 1277 ft | 148 kts | 86° |
| 2026-05-04 15:59 | 44.56018 | 26.01769 | 1110 ft | 145 kts | 83° |
| 2026-05-04 16:00 | 44.56137 | 26.03160 | 960 ft | 142 kts | 85° |
| 2026-05-04 16:00 | 44.56239 | 26.04526 | 772 ft | 140 kts | 87° |
| 2026-05-04 16:00 | 44.56331 | 26.05856 | 629 ft | 139 kts | 84° |
| 2026-05-04 16:00 | 44.56429 | 26.07178 | 430 ft | 135 kts | 85° |
| 2026-05-04 16:01 | 44.56524 | 26.08488 | 354 ft | 134 kts | 85° |
| 2026-05-04 16:01 | 44.56615 | 26.09720 | 322 ft | 109 kts | 83° |
| 2026-05-04 16:01 | 44.56675 | 26.10540 | 323 ft | 60 kts | 85° |
| 2026-05-04 16:01 | 44.56725 | 26.10753 | 323 ft | 5 kts | 20° |
| 2026-05-04 16:02 | 44.56774 | 26.10762 | 322 ft | 9 kts | 358° |
| 2026-05-04 16:02 | 44.56840 | 26.10752 | 322 ft | 11 kts | 354° |
| 2026-05-04 16:02 | 44.57008 | 26.10693 | 322 ft | 15 kts | 317° |
| 2026-05-04 16:03 | 44.57062 | 26.10563 | 322 ft | 16 kts | 288° |
| 2026-05-04 16:03 | 44.57059 | 26.10395 | 322 ft | 18 kts | 263° |
| 2026-05-04 16:03 | 44.57047 | 26.10247 | 322 ft | 7 kts | 264° |
| 2026-05-04 16:03 | 44.57020 | 26.10191 | 322 ft | 8 kts | 207° |
| 2026-05-04 16:04 | 44.56995 | 26.10175 | 322 ft | 0 kts | 205° |
| 2026-05-04 16:04 | 44.56971 | 26.10161 | 322 ft | 1 kts | 203° |
| 2026-05-04 16:04 | 44.56970 | 26.10160 | 322 ft | 0 kts | 203° |
| 2026-05-04 16:08 | 44.56971 | 26.10161 | 322 ft | 0 kts | 204° |